KAFN/AFN METAR and TAF weather

Enter ICAO airport designator
Station Type Date Time Source
KAFN METAR 2018/07/16 23:52 UTC NOAA

KAFN 162352Z AUTO 15004KT 10SM CLR 27/23 A2994 RMK AO2 LTG DSNT SE SLP137 T02670228 10317 20267 58005


Station Type Date Time Source
KAFN Decoded METAR 2018/07/16 23:52 UTC NOAA

JAFFREY MUNI-SILVER RANCH, NH, United States (KAFN) 42-48N 72-00W 313M
Jul 16, 2018 - 07:52 PM EDT / 2018.07.16 2352 UTC
Wind: from the SSE (150 degrees) at 5 MPH (4 KT):0
Visibility: 10 mile(s):0
Sky conditions: clear
Weather: Lightning observed
Temperature: 80.1 F (26.7 C)
Dew Point: 73.0 F (22.8 C)
Relative Humidity: 79%
Pressure (altimeter): 29.94 in. Hg (1013 hPa)
Pressure tendency: 0.01 inches (0.5 hPa) lower than three hours ago
ob: KAFN 162352Z AUTO 15004KT 10SM CLR 27/23 A2994 RMK AO2 LTG DSNT SE SLP137 T02670228 10317 20267 58005
cycle: 0

Station Type Date Time Source
KAFN TAF UTC NOAA

Error!


Example: see airport list